Flight Track Log - Related Links

Times and Time Zones

All times are in EDT time to prevent confusion due to time zone crossing. See the AAL2320 flight status page for this flight to view local times or setup timezone preferences in your user account.

Time Position Orientation Groundspeed Altitude Reporting Facility
EDT Latitude Longitude Course Direction KTS MPH feet Rate Location/Type
Tue 06:50:35 AM 32.8833 -97.0333 52° Northeast 171 197 1,200  Level Dallas / Fort Worth TRACON
Tue 06:51:53 AM 32.8167 -97.0167 168° South 199 229 3,900 2,336 Climbing Dallas / Fort Worth TRACON
Tue 06:53:00 AM 32.8052 -96.7550 53° Northeast  Level FlightAware Approximate
Tue 06:53:04 AM 32.7667 -96.9667 140° Southeast 247 284 7,000  Level Dallas / Fort Worth TRACON
Tue 06:54:00 AM 32.8728 -96.6492 52° Northeast  Level FlightAware Approximate
Tue 06:54:04 AM 32.8000 -96.8833 65° Northeast 295 339 9,500  Level Dallas / Fort Worth TRACON
Tue 06:54:57 AM 32.8333 -96.8000 65° Northeast 329 379 11,200 2,260 Climbing Dallas / Fort Worth TRACON
Tue 06:55:00 AM 32.9422 -96.5450 52° Northeast  Level FlightAware Approximate
Tue 06:56:38 AM 32.9250 -96.6314 57° Northeast 356 410 15,300  Level Fort Worth Center
Tue 06:57:38 AM 32.9806 -96.5219 59° Northeast 369 425 17,700 2,100 Climbing Fort Worth Center
Tue 06:58:38 AM 33.0342 -96.4247 57° Northeast 387 445 19,500 1,950 Climbing Fort Worth Center
Tue 06:59:38 AM 33.0914 -96.2975 62° Northeast 392 451 21,600 1,900 Climbing Fort Worth Center
Tue 07:00:38 AM 33.1258 -96.1806 71° East 398 458 23,300 1,650 Climbing Fort Worth Center
Tue 07:01:38 AM 33.1744 -96.0386 68° East 409 471 24,900 1,550 Climbing Fort Worth Center
Tue 07:02:38 AM 33.2294 -95.9133 62° Northeast 415 478 26,400 1,350 Climbing Fort Worth Center
Tue 07:03:38 AM 33.2861 -95.7783 63° Northeast 433 498 27,600 1,350 Climbing Fort Worth Center
Tue 07:04:38 AM 33.3408 -95.6431 64° Northeast 439 505 29,100 1,450 Climbing Fort Worth Center
Tue 07:05:38 AM 33.3950 -95.5100 64° Northeast 439 505 30,500 1,400 Climbing Fort Worth Center
Tue 07:06:38 AM 33.4494 -95.3744 64° Northeast 444 511 31,900 1,250 Climbing Fort Worth Center
Tue 07:07:38 AM 33.5033 -95.2386 65° Northeast 444 511 33,000 550 Climbing Fort Worth Center
Tue 07:08:38 AM 33.5575 -95.1028 64° Northeast 444 511 33,000  Level Fort Worth Center
Tue 07:09:38 AM 33.6111 -94.9692 64° Northeast 444 511 33,000  Level Fort Worth Center
Tue 07:10:38 AM 33.6647 -94.8356 64° Northeast 444 511 33,000  Level Fort Worth Center
Tue 07:12:50 AM 33.7744 -94.5603 64° Northeast 437 503 33,000  Level Memphis Center
Tue 07:13:50 AM 33.8292 -94.4206 65° Northeast 442 509 33,000  Level Memphis Center
Tue 07:14:50 AM 33.8814 -94.2878 65° Northeast 447 514 33,000  Level Memphis Center
Tue 07:15:50 AM 33.9358 -94.1500 65° Northeast 447 514 33,000  Level Memphis Center
Tue 07:16:50 AM 33.9875 -94.0197 64° Northeast 436 502 33,000  Level Memphis Center
Tue 07:17:50 AM 34.0394 -93.8839 65° Northeast 436 502 33,000  Level Memphis Center
Tue 07:18:50 AM 34.0933 -93.7483 64° Northeast 441 507 33,000  Level Memphis Center
Tue 07:19:50 AM 34.1428 -93.6122 66° East 441 507 33,000  Level Memphis Center
Tue 07:20:50 AM 34.1964 -93.4761 65° Northeast 441 507 33,000  Level Memphis Center
Tue 07:21:50 AM 34.2478 -93.3372 66° East 441 507 33,000  Level Memphis Center
Tue 07:22:50 AM 34.3011 -93.2008 65° Northeast 446 513 33,000  Level Memphis Center
Tue 07:23:50 AM 34.3567 -93.0442 67° East 452 520 33,000  Level Memphis Center
Tue 07:24:50 AM 34.4056 -92.9072 67° East 452 520 33,000  Level Memphis Center
Tue 07:25:50 AM 34.4583 -92.7728 65° Northeast 446 513 33,000  Level Memphis Center
Tue 07:26:50 AM 34.5089 -92.6356 66° East 446 513 33,000  Level Memphis Center
Tue 07:27:50 AM 34.5594 -92.4956 66° East 446 513 33,000  Level Memphis Center
Tue 07:28:50 AM 34.6094 -92.3608 66° East 446 513 33,000  Level Memphis Center
Tue 07:29:50 AM 34.6617 -92.2231 65° Northeast 446 513 33,000  Level Memphis Center
Tue 07:30:50 AM 34.7650 -92.1544 29° Northeast 407 468 33,000  Level Memphis Center
Tue 07:31:50 AM 34.8908 -92.1167 14° North 418 481 33,000  Level Memphis Center
Tue 07:32:50 AM 35.0100 -92.0836 13° North 425 489 33,000  Level Memphis Center
Tue 07:33:50 AM 35.1294 -92.0506 13° North 430 495 33,000  Level Memphis Center
Tue 07:34:50 AM 35.2508 -92.0147 14° North 436 502 33,000  Level Memphis Center
Tue 07:35:50 AM 35.3744 -91.9792 13° North 441 507 33,000  Level Memphis Center
Tue 07:36:50 AM 35.4958 -91.9458 13° North 441 507 33,000  Level Memphis Center
Tue 07:37:50 AM 35.6131 -91.9097 14° North 441 507 33,000  Level Memphis Center
Tue 07:38:50 AM 35.7239 -91.8786 13° North 441 507 33,000  Level Memphis Center
Tue 07:39:50 AM 35.8433 -91.8447 13° North 441 507 33,000  Level Memphis Center
Tue 07:40:50 AM 35.9689 -91.8086 13° North 429 494 33,000  Level Memphis Center
Tue 07:41:50 AM 36.0903 -91.7722 14° North 423 487 33,000  Level Memphis Center
Tue 07:42:50 AM 36.2094 -91.7383 13° North 431 496 33,000  Level Memphis Center
Tue 07:43:50 AM 36.3286 -91.7042 13° North 431 496 33,000  Level Memphis Center
Tue 07:44:50 AM 36.4417 -91.6675 15° North 431 496 33,000  Level Memphis Center
Tue 07:45:50 AM 36.5525 -91.6331 14° North 431 496 33,000  Level Memphis Center
Tue 07:46:34 AM 36.6483 -91.6033 14° North 436 502 33,000  Level Kansas City Center
Tue 07:47:35 AM 36.7647 -91.5700 13° North 432 497 33,000  Level Kansas City Center
Tue 07:48:37 AM 36.8844 -91.5322 14° North 435 501 33,000  Level Kansas City Center
Tue 07:49:36 AM 37.0033 -91.4953 14° North 438 504 33,000  Level Kansas City Center
Tue 07:50:37 AM 37.1217 -91.4592 14° North 438 504 33,000  Level Kansas City Center
Tue 07:51:38 AM 37.2417 -91.4233 13° North 441 507 33,000  Level Kansas City Center
Tue 07:52:41 AM 37.3594 -91.3869 14° North 439 505 33,000  Level Kansas City Center
Tue 07:53:43 AM 37.4808 -91.3500 14° North 444 511 33,000  Level Kansas City Center
Tue 07:54:43 AM 37.5997 -91.3131 14° North 443 510 33,000  Level Kansas City Center
Tue 07:55:44 AM 37.7206 -91.2758 14° North 445 512 33,000  Level Kansas City Center
Tue 07:56:45 AM 37.8644 -91.2319 14° North 445 512 33,000  Level Kansas City Center
Tue 07:57:47 AM 37.9847 -91.1953 14° North 444 511 33,000  Level Kansas City Center
Tue 07:58:49 AM 38.1050 -91.1572 14° North 446 513 33,000  Level Kansas City Center
Tue 07:59:48 AM 38.2142 -91.1233 14° North 448 516 33,000  Level Kansas City Center
Tue 08:00:49 AM 38.3353 -91.0850 14° North 447 514 33,000  Level Kansas City Center
Tue 08:01:51 AM 38.4564 -91.0478 14° North 446 513 33,000  Level Kansas City Center
Tue 08:02:52 AM 38.5769 -91.0092 14° North 445 512 33,000  Level Kansas City Center
Tue 08:03:53 AM 38.7197 -90.9603 15° North 442 509 33,000  Level Kansas City Center
Tue 08:04:53 AM 38.8333 -90.8978 23° Northeast 442 509 33,000  Level Kansas City Center
Tue 08:05:57 AM 38.9469 -90.8361 23° Northeast 441 507 33,000  Level Kansas City Center
Tue 08:06:58 AM 39.0603 -90.7756 23° Northeast 438 504 33,000  Level Kansas City Center
Tue 08:07:58 AM 39.1739 -90.7142 23° Northeast 440 506 33,000  Level Kansas City Center
Tue 08:09:01 AM 39.2858 -90.6503 24° Northeast 439 505 33,000  Level Kansas City Center
Tue 08:10:03 AM 39.3983 -90.5897 23° Northeast 437 503 33,000  Level Kansas City Center
Tue 08:11:03 AM 39.5097 -90.5269 23° Northeast 437 503 33,000  Level Kansas City Center
Tue 08:12:04 AM 39.6217 -90.4653 23° Northeast 436 502 33,000  Level Kansas City Center
Tue 08:13:06 AM 39.7339 -90.4033 23° Northeast 437 503 33,000  Level Kansas City Center
Tue 08:14:06 AM 39.8642 -90.3308 23° Northeast 437 503 33,000  Level Kansas City Center
Tue 08:15:09 AM 39.9747 -90.2664 24° Northeast 435 501 33,000  Level Kansas City Center
Tue 08:16:10 AM 40.0858 -90.2044 23° Northeast 434 499 33,000  Level Kansas City Center
Tue 08:17:10 AM 40.1958 -90.1425 23° Northeast 431 496 33,000  Level Kansas City Center
Tue 08:18:12 AM 40.3069 -90.0800 23° Northeast 433 498 33,000 -288 Level Kansas City Center
Tue 08:19:15 AM 40.4169 -90.0169 24° Northeast 431 496 32,400 -629 Descending Kansas City Center
Tue 08:20:16 AM 40.5261 -89.9547 23° Northeast 438 504 31,700 -744 Descending Kansas City Center
Tue 08:21:16 AM 40.6367 -89.8911 24° Northeast 437 503 30,900 -836 Descending Kansas City Center
Tue 08:22:18 AM 40.7594 -89.8208 23° Northeast 444 511 30,000 -863 Descending Kansas City Center
Tue 08:23:42 AM 40.9333 -89.8764 346° North 470 541 28,800 -863 Descending Chicago Center
Tue 08:24:44 AM 41.0672 -89.8986 353° North 466 536 27,900 -919 Descending Chicago Center
Tue 08:25:46 AM 41.1708 -89.8111 32° Northeast 449 517 26,900 -1,500 Descending Chicago Center
Tue 08:26:48 AM 41.2286 -89.6289 67° East 440 506 24,800 -2,352 Descending Chicago Center
Tue 08:27:51 AM 41.2739 -89.4831 68° East 428 493 22,000 -2,496 Descending Chicago Center
Tue 08:28:53 AM 41.3192 -89.3397 67° East 420 483 19,600 -2,371 Descending Chicago Center
Tue 08:29:55 AM 41.3653 -89.1881 68° East 407 468 17,100 -2,177 Descending Chicago Center
Tue 08:30:57 AM 41.4064 -89.0522 68° East 401 461 15,100 -2,032 Descending Chicago Center
Tue 08:31:59 AM 41.4453 -88.9247 68° East 380 437 12,900 -1,887 Descending Chicago Center
Tue 08:33:01 AM 41.4836 -88.8014 67° East 367 422 11,200 -919 Descending Chicago Center
Tue 08:34:03 AM 41.5197 -88.6856 67° East 345 397 11,000 -97 Descending Chicago Center
Tue 08:35:05 AM 41.5672 -88.5669 62° Northeast 308 354 11,000 -484 Level Chicago Center
Tue 08:36:07 AM 41.6078 -88.4678 61° Northeast 302 348 10,000 -1,210 Descending Chicago Center
Tue 08:37:09 AM 41.6594 -88.3808 51° Northeast 299 344 8,500 -1,306 Descending Chicago Center
Tue 08:38:11 AM 41.7214 -88.3147 39° Northeast 304 350 7,300 -726 Descending Chicago Center
Tue 08:39:13 AM 41.8014 -88.2992 North 291 335 7,000 -624 Descending Chicago Center
Tue 08:40:16 AM 41.8794 -88.2822 North 284 327 6,000 -1,344 Descending Chicago Center
Tue 08:41:18 AM 41.9578 -88.2297 26° Northeast 277 319 4,200 -1,742 Descending Chicago Center

Login

Don't have an account? Register now (free) for customized features, flight alerts, and more!